sensor_id;sensor_type;location;lat;lon;timestamp;temperature;humidity
52675;DHT22;38569;52.722;6.440;2022-09-06T00:00:06;20.20;99.90
52675;DHT22;38569;52.722;6.440;2022-09-06T00:02:33;20.10;99.90
52675;DHT22;38569;52.722;6.440;2022-09-06T00:04:59;20.10;99.90
52675;DHT22;38569;52.722;6.440;2022-09-06T00:07:25;20.00;99.90
52675;DHT22;38569;52.722;6.440;2022-09-06T00:09:51;19.90;99.90
52675;DHT22;38569;52.722;6.440;2022-09-06T00:12:17;19.80;99.90
52675;DHT22;38569;52.722;6.440;2022-09-06T00:14:42;19.80;99.90
52675;DHT22;38569;52.722;6.440;2022-09-06T00:17:08;19.80;99.90
52675;DHT22;38569;52.722;6.440;2022-09-06T00:19:34;19.80;99.90
52675;DHT22;38569;52.722;6.440;2022-09-06T00:22:00;19.80;99.90
52675;DHT22;38569;52.722;6.440;2022-09-06T00:24:25;19.70;99.90
52675;DHT22;38569;52.722;6.440;2022-09-06T00:26:51;19.60;99.90
52675;DHT22;38569;52.722;6.440;2022-09-06T00:29:17;19.60;99.90
52675;DHT22;38569;52.722;6.440;2022-09-06T00:31:42;19.60;99.90
52675;DHT22;38569;52.722;6.440;2022-09-06T00:34:08;19.50;99.90
52675;DHT22;38569;52.722;6.440;2022-09-06T00:36:34;19.50;99.90
52675;DHT22;38569;52.722;6.440;2022-09-06T00:38:59;19.50;99.90
52675;DHT22;38569;52.722;6.440;2022-09-06T00:41:25;19.50;99.90
52675;DHT22;38569;52.722;6.440;2022-09-06T00:43:51;19.40;99.90
52675;DHT22;38569;52.722;6.440;2022-09-06T00:46:20;19.30;99.90
52675;DHT22;38569;52.722;6.440;2022-09-06T00:48:49;19.20;99.90
52675;DHT22;38569;52.722;6.440;2022-09-06T00:51:17;19.20;99.90
52675;DHT22;38569;52.722;6.440;2022-09-06T00:53:44;19.20;99.90
52675;DHT22;38569;52.722;6.440;2022-09-06T00:56:10;19.10;99.90
52675;DHT22;38569;52.722;6.440;2022-09-06T00:58:36;19.10;99.90
52675;DHT22;38569;52.722;6.440;2022-09-06T01:01:02;19.10;99.90
52675;DHT22;38569;52.722;6.440;2022-09-06T01:03:28;19.00;99.90
52675;DHT22;38569;52.722;6.440;2022-09-06T01:17:33;19.10;99.90
52675;DHT22;38569;52.722;6.440;2022-09-06T01:20:16;19.10;99.90
52675;DHT22;38569;52.722;6.440;2022-09-06T01:33:50;19.20;99.90
52675;DHT22;38569;52.722;6.440;2022-09-06T01:36:22;19.20;99.90
52675;DHT22;38569;52.722;6.440;2022-09-06T01:38:49;19.30;99.90
52675;DHT22;38569;52.722;6.440;2022-09-06T01:41:15;19.30;99.90
52675;DHT22;38569;52.722;6.440;2022-09-06T01:43:43;19.20;99.90
52675;DHT22;38569;52.722;6.440;2022-09-06T01:46:37;19.20;99.90
52675;DHT22;38569;52.722;6.440;2022-09-06T01:57:40;19.00;99.90
52675;DHT22;38569;52.722;6.440;2022-09-06T02:00:17;18.90;99.90
52675;DHT22;38569;52.722;6.440;2022-09-06T02:05:50;18.80;99.90
52675;DHT22;38569;52.722;6.440;2022-09-06T02:08:30;18.80;99.90
52675;DHT22;38569;52.722;6.440;2022-09-06T02:11:02;18.80;99.90
52675;DHT22;38569;52.722;6.440;2022-09-06T02:14:03;18.80;99.90
52675;DHT22;38569;52.722;6.440;2022-09-06T02:16:25;18.80;99.90
52675;DHT22;38569;52.722;6.440;2022-09-06T02:18:53;18.80;99.90
52675;DHT22;38569;52.722;6.440;2022-09-06T02:21:26;18.80;99.90
52675;DHT22;38569;52.722;6.440;2022-09-06T02:23:55;18.90;99.90
52675;DHT22;38569;52.722;6.440;2022-09-06T02:26:25;18.90;99.90
52675;DHT22;38569;52.722;6.440;2022-09-06T02:28:51;19.00;99.90
52675;DHT22;38569;52.722;6.440;2022-09-06T02:31:21;19.10;99.90
52675;DHT22;38569;52.722;6.440;2022-09-06T02:33:48;19.10;99.90
52675;DHT22;38569;52.722;6.440;2022-09-06T02:36:15;19.20;99.90
52675;DHT22;38569;52.722;6.440;2022-09-06T02:38:41;19.20;99.90
52675;DHT22;38569;52.722;6.440;2022-09-06T02:41:08;19.20;99.90
52675;DHT22;38569;52.722;6.440;2022-09-06T02:43:34;19.20;99.90
52675;DHT22;38569;52.722;6.440;2022-09-06T02:46:00;19.20;99.90
52675;DHT22;38569;52.722;6.440;2022-09-06T02:48:26;19.20;99.90
52675;DHT22;38569;52.722;6.440;2022-09-06T02:50:51;19.20;99.90
52675;DHT22;38569;52.722;6.440;2022-09-06T02:53:17;19.30;99.90
52675;DHT22;38569;52.722;6.440;2022-09-06T02:55:45;19.30;99.90
52675;DHT22;38569;52.722;6.440;2022-09-06T02:58:11;19.20;99.90
52675;DHT22;38569;52.722;6.440;2022-09-06T03:00:37;19.30;99.90
52675;DHT22;38569;52.722;6.440;2022-09-06T03:03:03;19.30;99.90
52675;DHT22;38569;52.722;6.440;2022-09-06T03:05:30;19.30;99.90
52675;DHT22;38569;52.722;6.440;2022-09-06T03:07:56;19.40;99.90
52675;DHT22;38569;52.722;6.440;2022-09-06T03:10:22;19.40;99.90
52675;DHT22;38569;52.722;6.440;2022-09-06T03:12:49;19.40;99.90
52675;DHT22;38569;52.722;6.440;2022-09-06T03:15:15;19.40;99.90
52675;DHT22;38569;52.722;6.440;2022-09-06T03:17:42;19.50;99.90
52675;DHT22;38569;52.722;6.440;2022-09-06T03:20:09;19.40;99.90
52675;DHT22;38569;52.722;6.440;2022-09-06T03:22:36;19.40;99.90
52675;DHT22;38569;52.722;6.440;2022-09-06T03:25:02;19.40;99.90
52675;DHT22;38569;52.722;6.440;2022-09-06T03:27:28;19.40;99.90
52675;DHT22;38569;52.722;6.440;2022-09-06T03:29:53;19.40;99.90
52675;DHT22;38569;52.722;6.440;2022-09-06T03:32:19;19.50;99.90
52675;DHT22;38569;52.722;6.440;2022-09-06T03:34:45;19.40;99.90
52675;DHT22;38569;52.722;6.440;2022-09-06T03:37:10;19.40;99.90
52675;DHT22;38569;52.722;6.440;2022-09-06T03:39:36;19.50;99.90
52675;DHT22;38569;52.722;6.440;2022-09-06T03:42:02;19.40;99.90
52675;DHT22;38569;52.722;6.440;2022-09-06T03:44:28;19.40;99.90
52675;DHT22;38569;52.722;6.440;2022-09-06T03:46:53;19.40;99.90
52675;DHT22;38569;52.722;6.440;2022-09-06T03:49:19;19.40;99.90
52675;DHT22;38569;52.722;6.440;2022-09-06T03:51:45;19.40;99.90
52675;DHT22;38569;52.722;6.440;2022-09-06T03:54:10;19.30;99.90
52675;DHT22;38569;52.722;6.440;2022-09-06T03:56:36;19.30;99.90
52675;DHT22;38569;52.722;6.440;2022-09-06T03:59:02;19.30;99.90
52675;DHT22;38569;52.722;6.440;2022-09-06T04:01:27;19.20;99.90
52675;DHT22;38569;52.722;6.440;2022-09-06T04:03:53;19.20;99.90
52675;DHT22;38569;52.722;6.440;2022-09-06T04:06:19;19.20;99.90
52675;DHT22;38569;52.722;6.440;2022-09-06T04:08:44;19.10;99.90
52675;DHT22;38569;52.722;6.440;2022-09-06T04:11:10;19.10;99.90
52675;DHT22;38569;52.722;6.440;2022-09-06T04:13:36;19.10;99.90
52675;DHT22;38569;52.722;6.440;2022-09-06T04:16:03;19.00;99.90
52675;DHT22;38569;52.722;6.440;2022-09-06T04:18:29;19.00;99.90
52675;DHT22;38569;52.722;6.440;2022-09-06T04:20:55;19.00;99.90
52675;DHT22;38569;52.722;6.440;2022-09-06T04:23:23;18.90;99.90
52675;DHT22;38569;52.722;6.440;2022-09-06T04:25:52;18.90;99.90
52675;DHT22;38569;52.722;6.440;2022-09-06T04:28:18;18.80;99.90
52675;DHT22;38569;52.722;6.440;2022-09-06T04:30:52;18.80;99.90
52675;DHT22;38569;52.722;6.440;2022-09-06T04:33:19;18.70;99.90
52675;DHT22;38569;52.722;6.440;2022-09-06T04:35:56;18.60;99.90
52675;DHT22;38569;52.722;6.440;2022-09-06T04:38:23;18.60;99.90
52675;DHT22;38569;52.722;6.440;2022-09-06T04:40:49;18.40;99.90
52675;DHT22;38569;52.722;6.440;2022-09-06T04:43:14;18.30;99.90
52675;DHT22;38569;52.722;6.440;2022-09-06T04:45:41;18.20;99.90
52675;DHT22;38569;52.722;6.440;2022-09-06T04:48:07;18.10;99.90
52675;DHT22;38569;52.722;6.440;2022-09-06T04:50:32;18.10;99.90
52675;DHT22;38569;52.722;6.440;2022-09-06T04:52:58;18.00;99.90
52675;DHT22;38569;52.722;6.440;2022-09-06T04:55:24;17.90;99.90
52675;DHT22;38569;52.722;6.440;2022-09-06T04:57:51;17.80;99.90
52675;DHT22;38569;52.722;6.440;2022-09-06T05:00:17;17.80;99.90
52675;DHT22;38569;52.722;6.440;2022-09-06T05:02:43;17.70;99.90
52675;DHT22;38569;52.722;6.440;2022-09-06T05:05:09;17.70;99.90
52675;DHT22;38569;52.722;6.440;2022-09-06T05:07:35;17.70;99.90
52675;DHT22;38569;52.722;6.440;2022-09-06T05:10:02;17.60;99.90
52675;DHT22;38569;52.722;6.440;2022-09-06T05:12:28;17.60;99.90
52675;DHT22;38569;52.722;6.440;2022-09-06T05:14:53;17.60;99.90
52675;DHT22;38569;52.722;6.440;2022-09-06T05:17:19;17.60;99.90
52675;DHT22;38569;52.722;6.440;2022-09-06T05:19:45;17.50;99.90
52675;DHT22;38569;52.722;6.440;2022-09-06T05:22:11;17.50;99.90
52675;DHT22;38569;52.722;6.440;2022-09-06T05:24:36;17.30;99.90
52675;DHT22;38569;52.722;6.440;2022-09-06T05:27:02;17.20;99.90
52675;DHT22;38569;52.722;6.440;2022-09-06T05:29:29;17.10;99.90
52675;DHT22;38569;52.722;6.440;2022-09-06T05:31:55;17.00;99.90
52675;DHT22;38569;52.722;6.440;2022-09-06T05:34:21;17.00;99.90
52675;DHT22;38569;52.722;6.440;2022-09-06T05:36:47;16.90;99.90
52675;DHT22;38569;52.722;6.440;2022-09-06T05:39:12;16.90;99.90
52675;DHT22;38569;52.722;6.440;2022-09-06T05:41:38;17.00;99.90
52675;DHT22;38569;52.722;6.440;2022-09-06T05:44:04;17.10;99.90
52675;DHT22;38569;52.722;6.440;2022-09-06T05:46:29;17.30;99.90
52675;DHT22;38569;52.722;6.440;2022-09-06T05:48:57;17.40;99.90
52675;DHT22;38569;52.722;6.440;2022-09-06T05:51:25;17.50;99.90
52675;DHT22;38569;52.722;6.440;2022-09-06T05:53:51;17.60;99.90
52675;DHT22;38569;52.722;6.440;2022-09-06T05:56:17;17.70;99.90
52675;DHT22;38569;52.722;6.440;2022-09-06T05:58:43;17.80;99.90
52675;DHT22;38569;52.722;6.440;2022-09-06T06:01:27;17.90;99.90
52675;DHT22;38569;52.722;6.440;2022-09-06T06:03:59;18.00;99.90
52675;DHT22;38569;52.722;6.440;2022-09-06T06:06:28;18.10;99.90
52675;DHT22;38569;52.722;6.440;2022-09-06T06:08:54;18.10;99.90
52675;DHT22;38569;52.722;6.440;2022-09-06T06:11:21;18.10;99.90
52675;DHT22;38569;52.722;6.440;2022-09-06T06:13:46;18.20;99.90
52675;DHT22;38569;52.722;6.440;2022-09-06T06:16:14;18.20;99.90
52675;DHT22;38569;52.722;6.440;2022-09-06T06:18:40;18.20;99.90
52675;DHT22;38569;52.722;6.440;2022-09-06T06:21:22;18.30;99.90
52675;DHT22;38569;52.722;6.440;2022-09-06T06:23:50;18.30;99.90
52675;DHT22;38569;52.722;6.440;2022-09-06T06:26:16;18.20;99.90
52675;DHT22;38569;52.722;6.440;2022-09-06T06:28:42;18.10;99.90
52675;DHT22;38569;52.722;6.440;2022-09-06T06:31:09;18.10;99.90
52675;DHT22;38569;52.722;6.440;2022-09-06T06:33:36;18.10;99.90
52675;DHT22;38569;52.722;6.440;2022-09-06T06:38:41;18.20;99.90
52675;DHT22;38569;52.722;6.440;2022-09-06T06:41:09;18.30;99.90
52675;DHT22;38569;52.722;6.440;2022-09-06T06:43:35;18.40;99.90
52675;DHT22;38569;52.722;6.440;2022-09-06T06:48:33;18.50;99.90
52675;DHT22;38569;52.722;6.440;2022-09-06T06:50:59;18.60;99.90
52675;DHT22;38569;52.722;6.440;2022-09-06T06:53:24;18.60;99.90
52675;DHT22;38569;52.722;6.440;2022-09-06T06:55:50;18.70;99.90
52675;DHT22;38569;52.722;6.440;2022-09-06T06:58:16;18.80;99.90
52675;DHT22;38569;52.722;6.440;2022-09-06T07:00:42;18.80;99.90
52675;DHT22;38569;52.722;6.440;2022-09-06T07:03:09;18.90;99.90
52675;DHT22;38569;52.722;6.440;2022-09-06T07:05:35;19.00;99.90
52675;DHT22;38569;52.722;6.440;2022-09-06T07:08:02;19.00;99.90
52675;DHT22;38569;52.722;6.440;2022-09-06T07:10:28;19.10;99.90
52675;DHT22;38569;52.722;6.440;2022-09-06T07:12:53;19.20;99.90
52675;DHT22;38569;52.722;6.440;2022-09-06T07:15:19;19.20;99.90
52675;DHT22;38569;52.722;6.440;2022-09-06T07:17:45;19.30;99.90
52675;DHT22;38569;52.722;6.440;2022-09-06T07:20:10;19.30;99.90
52675;DHT22;38569;52.722;6.440;2022-09-06T07:22:37;19.50;99.90
52675;DHT22;38569;52.722;6.440;2022-09-06T07:25:03;19.60;99.90
52675;DHT22;38569;52.722;6.440;2022-09-06T07:27:29;19.70;99.90
52675;DHT22;38569;52.722;6.440;2022-09-06T07:29:55;19.80;99.90
52675;DHT22;38569;52.722;6.440;2022-09-06T07:32:20;19.80;99.90
52675;DHT22;38569;52.722;6.440;2022-09-06T07:34:46;19.90;99.90
52675;DHT22;38569;52.722;6.440;2022-09-06T07:37:12;20.00;99.90
52675;DHT22;38569;52.722;6.440;2022-09-06T07:39:37;20.10;99.90
52675;DHT22;38569;52.722;6.440;2022-09-06T07:42:04;20.20;99.90
52675;DHT22;38569;52.722;6.440;2022-09-06T07:44:31;20.20;99.90
52675;DHT22;38569;52.722;6.440;2022-09-06T07:46:56;20.40;99.90
52675;DHT22;38569;52.722;6.440;2022-09-06T07:49:22;20.50;99.90
52675;DHT22;38569;52.722;6.440;2022-09-06T07:51:48;20.60;99.90
52675;DHT22;38569;52.722;6.440;2022-09-06T07:54:13;20.70;99.90
52675;DHT22;38569;52.722;6.440;2022-09-06T07:56:39;20.80;99.90
52675;DHT22;38569;52.722;6.440;2022-09-06T07:59:05;20.90;99.90
52675;DHT22;38569;52.722;6.440;2022-09-06T08:01:32;21.00;99.90
52675;DHT22;38569;52.722;6.440;2022-09-06T08:04:04;21.10;99.90
52675;DHT22;38569;52.722;6.440;2022-09-06T08:06:32;21.20;99.90
52675;DHT22;38569;52.722;6.440;2022-09-06T08:08:58;21.20;99.90
52675;DHT22;38569;52.722;6.440;2022-09-06T08:11:26;21.20;99.90
52675;DHT22;38569;52.722;6.440;2022-09-06T08:13:54;21.30;99.90
52675;DHT22;38569;52.722;6.440;2022-09-06T08:16:21;21.30;99.90
52675;DHT22;38569;52.722;6.440;2022-09-06T08:18:54;21.20;99.90
52675;DHT22;38569;52.722;6.440;2022-09-06T08:21:21;21.30;99.90
52675;DHT22;38569;52.722;6.440;2022-09-06T08:23:56;21.40;99.90
52675;DHT22;38569;52.722;6.440;2022-09-06T08:26:23;21.60;99.90
52675;DHT22;38569;52.722;6.440;2022-09-06T08:28:54;21.70;99.90
52675;DHT22;38569;52.722;6.440;2022-09-06T08:31:20;21.90;99.90
52675;DHT22;38569;52.722;6.440;2022-09-06T08:33:46;21.90;99.90
52675;DHT22;38569;52.722;6.440;2022-09-06T08:36:12;21.90;99.90
52675;DHT22;38569;52.722;6.440;2022-09-06T08:38:39;22.00;99.90
52675;DHT22;38569;52.722;6.440;2022-09-06T08:41:09;21.90;99.90
52675;DHT22;38569;52.722;6.440;2022-09-06T08:43:36;22.00;99.90
52675;DHT22;38569;52.722;6.440;2022-09-06T08:46:03;21.90;99.90
52675;DHT22;38569;52.722;6.440;2022-09-06T08:48:32;22.00;99.90
52675;DHT22;38569;52.722;6.440;2022-09-06T08:51:10;22.00;99.90
52675;DHT22;38569;52.722;6.440;2022-09-06T08:53:43;22.00;99.90
52675;DHT22;38569;52.722;6.440;2022-09-06T08:56:11;22.00;99.90
52675;DHT22;38569;52.722;6.440;2022-09-06T09:01:21;22.10;99.90
52675;DHT22;38569;52.722;6.440;2022-09-06T09:03:51;22.10;99.90
52675;DHT22;38569;52.722;6.440;2022-09-06T09:06:18;22.20;99.90
52675;DHT22;38569;52.722;6.440;2022-09-06T09:11:23;22.30;99.90
52675;DHT22;38569;52.722;6.440;2022-09-06T09:16:40;22.50;99.90
52675;DHT22;38569;52.722;6.440;2022-09-06T09:19:06;22.50;99.90
52675;DHT22;38569;52.722;6.440;2022-09-06T09:21:36;22.60;99.90
52675;DHT22;38569;52.722;6.440;2022-09-06T09:24:07;22.80;99.90
52675;DHT22;38569;52.722;6.440;2022-09-06T09:26:48;22.80;99.90
52675;DHT22;38569;52.722;6.440;2022-09-06T09:29:15;22.90;99.90
52675;DHT22;38569;52.722;6.440;2022-09-06T09:31:45;23.10;99.90
52675;DHT22;38569;52.722;6.440;2022-09-06T09:34:28;23.20;99.90
52675;DHT22;38569;52.722;6.440;2022-09-06T09:37:23;23.50;99.90
52675;DHT22;38569;52.722;6.440;2022-09-06T09:39:52;23.70;99.90
52675;DHT22;38569;52.722;6.440;2022-09-06T09:42:35;23.90;99.90
52675;DHT22;38569;52.722;6.440;2022-09-06T09:45:02;24.60;99.90
52675;DHT22;38569;52.722;6.440;2022-09-06T09:47:31;25.80;99.90
52675;DHT22;38569;52.722;6.440;2022-09-06T09:49:57;27.00;99.90
52675;DHT22;38569;52.722;6.440;2022-09-06T09:52:28;28.10;99.90
52675;DHT22;38569;52.722;6.440;2022-09-06T09:55:00;28.80;99.30
52675;DHT22;38569;52.722;6.440;2022-09-06T09:57:29;29.80;99.10
52675;DHT22;38569;52.722;6.440;2022-09-06T09:59:57;30.60;97.40
52675;DHT22;38569;52.722;6.440;2022-09-06T10:02:32;31.10;92.30
52675;DHT22;38569;52.722;6.440;2022-09-06T10:07:53;32.00;85.70
52675;DHT22;38569;52.722;6.440;2022-09-06T10:10:22;32.40;79.30
52675;DHT22;38569;52.722;6.440;2022-09-06T10:12:48;32.50;77.10
52675;DHT22;38569;52.722;6.440;2022-09-06T10:15:37;33.10;74.30
52675;DHT22;38569;52.722;6.440;2022-09-06T10:18:04;32.90;71.60
52675;DHT22;38569;52.722;6.440;2022-09-06T10:20:52;33.10;71.50
52675;DHT22;38569;52.722;6.440;2022-09-06T10:23:25;33.50;68.60
52675;DHT22;38569;52.722;6.440;2022-09-06T10:26:18;34.00;68.60
52675;DHT22;38569;52.722;6.440;2022-09-06T10:28:50;33.80;64.10
52675;DHT22;38569;52.722;6.440;2022-09-06T10:39:56;34.90;63.50
52675;DHT22;38569;52.722;6.440;2022-09-06T10:42:44;34.10;63.80
52675;DHT22;38569;52.722;6.440;2022-09-06T10:45:56;33.70;62.50
52675;DHT22;38569;52.722;6.440;2022-09-06T10:48:29;33.70;63.60
52675;DHT22;38569;52.722;6.440;2022-09-06T10:51:15;33.70;63.10
52675;DHT22;38569;52.722;6.440;2022-09-06T10:56:30;33.90;60.90
52675;DHT22;38569;52.722;6.440;2022-09-06T10:59:07;34.20;60.70
52675;DHT22;38569;52.722;6.440;2022-09-06T11:01:41;34.40;59.40
52675;DHT22;38569;52.722;6.440;2022-09-06T11:04:17;34.30;59.40
52675;DHT22;38569;52.722;6.440;2022-09-06T11:06:50;33.70;57.90
52675;DHT22;38569;52.722;6.440;2022-09-06T11:09:19;33.70;59.20
52675;DHT22;38569;52.722;6.440;2022-09-06T11:12:01;34.40;59.50
52675;DHT22;38569;52.722;6.440;2022-09-06T11:14:29;34.60;58.40
52675;DHT22;38569;52.722;6.440;2022-09-06T11:17:22;34.70;58.10
52675;DHT22;38569;52.722;6.440;2022-09-06T11:27:55;35.30;56.70
52675;DHT22;38569;52.722;6.440;2022-09-06T11:30:21;35.80;55.80
52675;DHT22;38569;52.722;6.440;2022-09-06T11:33:07;35.80;55.00
52675;DHT22;38569;52.722;6.440;2022-09-06T11:35:41;35.40;54.90
52675;DHT22;38569;52.722;6.440;2022-09-06T11:40:45;33.90;56.60
52675;DHT22;38569;52.722;6.440;2022-09-06T11:51:40;35.10;55.10
52675;DHT22;38569;52.722;6.440;2022-09-06T11:59:40;34.70;54.00
52675;DHT22;38569;52.722;6.440;2022-09-06T12:07:33;34.30;55.20
52675;DHT22;38569;52.722;6.440;2022-09-06T12:12:53;34.30;54.80
52675;DHT22;38569;52.722;6.440;2022-09-06T12:17:54;34.30;53.00
52675;DHT22;38569;52.722;6.440;2022-09-06T12:26:09;34.40;52.50
52675;DHT22;38569;52.722;6.440;2022-09-06T12:28:50;34.30;53.70
52675;DHT22;38569;52.722;6.440;2022-09-06T12:31:21;34.60;53.40
52675;DHT22;38569;52.722;6.440;2022-09-06T12:33:48;34.70;53.10
52675;DHT22;38569;52.722;6.440;2022-09-06T12:36:29;34.60;52.60
52675;DHT22;38569;52.722;6.440;2022-09-06T12:39:03;34.10;52.80
52675;DHT22;38569;52.722;6.440;2022-09-06T12:41:35;33.70;53.40
52675;DHT22;38569;52.722;6.440;2022-09-06T12:44:03;33.70;53.30
52675;DHT22;38569;52.722;6.440;2022-09-06T12:46:30;33.90;52.70
52675;DHT22;38569;52.722;6.440;2022-09-06T12:49:18;33.90;52.50
52675;DHT22;38569;52.722;6.440;2022-09-06T12:51:44;34.00;52.80
52675;DHT22;38569;52.722;6.440;2022-09-06T12:56:45;33.70;52.50
52675;DHT22;38569;52.722;6.440;2022-09-06T12:59:15;33.60;53.00
52675;DHT22;38569;52.722;6.440;2022-09-06T13:02:06;33.30;53.50
52675;DHT22;38569;52.722;6.440;2022-09-06T13:04:52;33.40;53.00
52675;DHT22;38569;52.722;6.440;2022-09-06T13:07:22;33.30;53.80
52675;DHT22;38569;52.722;6.440;2022-09-06T13:09:50;33.10;52.90
52675;DHT22;38569;52.722;6.440;2022-09-06T13:12:23;32.80;53.60
52675;DHT22;38569;52.722;6.440;2022-09-06T13:14:55;32.90;54.00
52675;DHT22;38569;52.722;6.440;2022-09-06T13:17:26;33.20;53.20
52675;DHT22;38569;52.722;6.440;2022-09-06T13:19:53;33.20;52.70
52675;DHT22;38569;52.722;6.440;2022-09-06T13:22:51;33.30;53.00
52675;DHT22;38569;52.722;6.440;2022-09-06T13:27:46;33.70;52.50
52675;DHT22;38569;52.722;6.440;2022-09-06T13:30:38;33.80;52.40
52675;DHT22;38569;52.722;6.440;2022-09-06T13:33:07;33.80;51.50
52675;DHT22;38569;52.722;6.440;2022-09-06T13:35:50;33.60;52.20
52675;DHT22;38569;52.722;6.440;2022-09-06T13:38:30;33.50;52.40
52675;DHT22;38569;52.722;6.440;2022-09-06T13:40:56;33.30;52.50
52675;DHT22;38569;52.722;6.440;2022-09-06T13:43:23;32.80;52.60
52675;DHT22;38569;52.722;6.440;2022-09-06T13:46:02;32.40;53.00
52675;DHT22;38569;52.722;6.440;2022-09-06T13:48:27;32.50;53.50
52675;DHT22;38569;52.722;6.440;2022-09-06T13:50:53;32.90;53.40
52675;DHT22;38569;52.722;6.440;2022-09-06T13:53:19;33.20;52.70
52675;DHT22;38569;52.722;6.440;2022-09-06T13:55:45;33.30;52.90
52675;DHT22;38569;52.722;6.440;2022-09-06T13:58:10;33.50;52.00
52675;DHT22;38569;52.722;6.440;2022-09-06T14:00:37;33.40;52.30
52675;DHT22;38569;52.722;6.440;2022-09-06T14:03:04;33.10;52.50
52675;DHT22;38569;52.722;6.440;2022-09-06T14:05:30;32.80;52.60
52675;DHT22;38569;52.722;6.440;2022-09-06T14:07:55;32.70;53.40
52675;DHT22;38569;52.722;6.440;2022-09-06T14:10:21;32.60;53.40
52675;DHT22;38569;52.722;6.440;2022-09-06T14:12:48;32.40;53.60
52675;DHT22;38569;52.722;6.440;2022-09-06T14:15:15;32.50;53.20
52675;DHT22;38569;52.722;6.440;2022-09-06T14:17:40;32.40;53.20
52675;DHT22;38569;52.722;6.440;2022-09-06T14:20:07;32.40;53.50
52675;DHT22;38569;52.722;6.440;2022-09-06T14:22:33;32.40;53.30
52675;DHT22;38569;52.722;6.440;2022-09-06T14:24:58;32.50;52.90
52675;DHT22;38569;52.722;6.440;2022-09-06T14:27:24;32.40;53.50
52675;DHT22;38569;52.722;6.440;2022-09-06T14:29:49;32.40;53.70
52675;DHT22;38569;52.722;6.440;2022-09-06T14:32:15;32.50;53.30
52675;DHT22;38569;52.722;6.440;2022-09-06T14:34:42;32.80;53.20
52675;DHT22;38569;52.722;6.440;2022-09-06T14:37:08;32.90;52.80
52675;DHT22;38569;52.722;6.440;2022-09-06T14:39:33;33.20;52.60
52675;DHT22;38569;52.722;6.440;2022-09-06T14:41:59;33.40;52.50
52675;DHT22;38569;52.722;6.440;2022-09-06T14:44:25;33.50;52.80
52675;DHT22;38569;52.722;6.440;2022-09-06T14:46:50;33.40;53.30
52675;DHT22;38569;52.722;6.440;2022-09-06T14:49:18;33.50;53.60
52675;DHT22;38569;52.722;6.440;2022-09-06T14:51:45;33.40;53.80
52675;DHT22;38569;52.722;6.440;2022-09-06T14:54:12;33.40;53.50
52675;DHT22;38569;52.722;6.440;2022-09-06T14:56:39;33.30;53.90
52675;DHT22;38569;52.722;6.440;2022-09-06T14:59:07;33.30;53.70
52675;DHT22;38569;52.722;6.440;2022-09-06T15:01:33;33.30;53.90
52675;DHT22;38569;52.722;6.440;2022-09-06T15:04:01;33.30;53.30
52675;DHT22;38569;52.722;6.440;2022-09-06T15:06:29;33.30;53.80
52675;DHT22;38569;52.722;6.440;2022-09-06T15:08:55;33.30;54.00
52675;DHT22;38569;52.722;6.440;2022-09-06T15:11:31;33.00;53.80
52675;DHT22;38569;52.722;6.440;2022-09-06T15:13:59;32.80;54.20
52675;DHT22;38569;52.722;6.440;2022-09-06T15:16:26;32.60;54.10
52675;DHT22;38569;52.722;6.440;2022-09-06T15:18:53;32.40;54.50
52675;DHT22;38569;52.722;6.440;2022-09-06T15:21:19;32.50;54.40
52675;DHT22;38569;52.722;6.440;2022-09-06T15:23:45;32.50;54.00
52675;DHT22;38569;52.722;6.440;2022-09-06T15:26:12;32.60;54.20
52675;DHT22;38569;52.722;6.440;2022-09-06T15:28:39;32.60;53.40
52675;DHT22;38569;52.722;6.440;2022-09-06T15:31:07;32.60;53.10
52675;DHT22;38569;52.722;6.440;2022-09-06T15:33:34;32.40;53.40
52675;DHT22;38569;52.722;6.440;2022-09-06T15:36:01;32.40;53.30
52675;DHT22;38569;52.722;6.440;2022-09-06T15:38:44;32.30;52.90
52675;DHT22;38569;52.722;6.440;2022-09-06T15:41:20;32.10;53.50
52675;DHT22;38569;52.722;6.440;2022-09-06T15:43:48;32.20;53.20
52675;DHT22;38569;52.722;6.440;2022-09-06T15:46:16;32.00;53.20
52675;DHT22;38569;52.722;6.440;2022-09-06T15:48:51;32.00;53.50
52675;DHT22;38569;52.722;6.440;2022-09-06T15:51:19;31.90;53.40
52675;DHT22;38569;52.722;6.440;2022-09-06T15:53:45;31.70;53.80
52675;DHT22;38569;52.722;6.440;2022-09-06T15:56:13;31.60;54.20
52675;DHT22;38569;52.722;6.440;2022-09-06T15:58:39;31.50;54.30
52675;DHT22;38569;52.722;6.440;2022-09-06T16:01:14;31.50;54.60
52675;DHT22;38569;52.722;6.440;2022-09-06T16:03:42;31.60;54.30
52675;DHT22;38569;52.722;6.440;2022-09-06T16:06:17;31.60;54.20
52675;DHT22;38569;52.722;6.440;2022-09-06T16:08:44;31.70;55.00
52675;DHT22;38569;52.722;6.440;2022-09-06T16:11:12;31.80;54.80
52675;DHT22;38569;52.722;6.440;2022-09-06T16:13:39;31.70;55.00
52675;DHT22;38569;52.722;6.440;2022-09-06T16:16:09;31.60;55.40
52675;DHT22;38569;52.722;6.440;2022-09-06T16:18:37;31.20;56.40
52675;DHT22;38569;52.722;6.440;2022-09-06T16:23:35;30.40;57.00
52675;DHT22;38569;52.722;6.440;2022-09-06T16:26:02;30.00;57.60
52675;DHT22;38569;52.722;6.440;2022-09-06T16:28:29;29.80;58.20
52675;DHT22;38569;52.722;6.440;2022-09-06T16:30:55;29.60;58.40
52675;DHT22;38569;52.722;6.440;2022-09-06T16:33:25;29.50;58.90
52675;DHT22;38569;52.722;6.440;2022-09-06T16:35:50;29.30;59.00
52675;DHT22;38569;52.722;6.440;2022-09-06T16:38:16;29.20;59.40
52675;DHT22;38569;52.722;6.440;2022-09-06T16:40:46;29.10;60.00
52675;DHT22;38569;52.722;6.440;2022-09-06T16:43:12;29.00;60.70
52675;DHT22;38569;52.722;6.440;2022-09-06T16:45:38;28.80;61.10
52675;DHT22;38569;52.722;6.440;2022-09-06T16:48:04;28.70;61.50
52675;DHT22;38569;52.722;6.440;2022-09-06T16:50:31;28.60;62.20
52675;DHT22;38569;52.722;6.440;2022-09-06T16:52:57;28.50;62.80
52675;DHT22;38569;52.722;6.440;2022-09-06T16:55:23;28.40;63.50
52675;DHT22;38569;52.722;6.440;2022-09-06T16:57:49;28.30;63.60
52675;DHT22;38569;52.722;6.440;2022-09-06T17:00:15;28.20;64.00
52675;DHT22;38569;52.722;6.440;2022-09-06T17:02:42;28.00;64.40
52675;DHT22;38569;52.722;6.440;2022-09-06T17:05:12;27.90;65.00
52675;DHT22;38569;52.722;6.440;2022-09-06T17:07:39;27.80;65.70
52675;DHT22;38569;52.722;6.440;2022-09-06T17:10:05;27.60;67.00
52675;DHT22;38569;52.722;6.440;2022-09-06T17:12:31;27.50;67.00
52675;DHT22;38569;52.722;6.440;2022-09-06T17:14:57;27.40;67.40
52675;DHT22;38569;52.722;6.440;2022-09-06T17:17:23;27.30;68.30
52675;DHT22;38569;52.722;6.440;2022-09-06T17:19:48;27.10;68.80
52675;DHT22;38569;52.722;6.440;2022-09-06T17:22:14;26.90;69.80
52675;DHT22;38569;52.722;6.440;2022-09-06T17:24:40;26.80;71.50
52675;DHT22;38569;52.722;6.440;2022-09-06T17:27:08;26.60;72.90
52675;DHT22;38569;52.722;6.440;2022-09-06T17:29:33;26.40;74.50